Stations météo

réclame
Mon MeteoGroup
Arties, Espagne (8107): Température de l'air & dewpoint: 06.12.2017 12:00:00 - 12.12.2017 12:00:00 (CET)Arties, Espagne (8107): Vitesse du vent & gusts: 06.12.2017 12:00:00 - 12.12.2017 12:00:00 (CET)Arties, Espagne (8107): Direction du vent: 06.12.2017 12:00:00 - 12.12.2017 12:00:00 (CET)Arties, Espagne (8107): Quantités de précipitations: 06.12.2017 12:00:00 - 12.12.2017 12:00:00 (CET)
Date & Time tt [°C] td [°C] ff [km/h] ff [knt] fx [km/h] fx [knt] dd rr [mm]
12.12.2017 12:00:00 0,4 -1,7 3 2 13 7 SSW 0,0
12.12.2017 11:00:00 0,0 -1,2 4 2 12 7 W 0,0
12.12.2017 10:00:00 0,0 -0,7 4 2 16 8 SW 0,0
12.12.2017 09:00:00 -0,2 -1,0 3 2 9 5 SSW 0,1
12.12.2017 08:00:00 -0,3 -1,2 0 0 6 3 W 0,0
12.12.2017 07:00:00 -0,3 -1,4 1 1 6 3 NE -
12.12.2017 06:00:00 -0,2 -1,7 3 1 9 5 NE 0,0
12.12.2017 05:00:00 -0,3 -2,2 3 2 8 5 E 0,0
12.12.2017 04:00:00 -1,0 -3,0 3 2 14 7 SW 0,0
12.12.2017 03:00:00 -1,5 -3,3 5 3 12 7 ENE 0,0
12.12.2017 02:00:00 -0,9 -3,3 4 2 14 7 E 0,0
12.12.2017 01:00:00 -0,5 -2,5 6 3 13 7 ENE -
12.12.2017 00:00:00 -0,1 -1,2 5 3 12 6 ENE 0,0
11.12.2017 23:00:00 -1,0 -1,7 0 0 5 3 NE 0,0
11.12.2017 22:00:00 -0,1 -0,7 1 1 12 6 SW 0,0
11.12.2017 21:00:00 0,0 -0,7 3 1 13 7 NE 0,0
11.12.2017 20:00:00 0,0 -0,5 4 2 6 3 ENE 0,0
11.12.2017 19:00:00 0,0 -0,7 0 0 8 4 N -
11.12.2017 18:00:00 0,4 -0,5 0 0 5 3 SW 0,0
11.12.2017 17:00:00 1,4 0,2 0 0 6 4 N 0,0
11.12.2017 16:00:00 2,2 0,6 3 1 16 9 S 0,0
11.12.2017 15:00:00 2,4 1,3 3 2 14 8 WSW 0,5
11.12.2017 14:00:00 2,0 0,9 8 4 21 12 W 0,0
11.12.2017 13:00:00 2,7 1,3 5 3 24 13 WSW -
11.12.2017 12:00:00 3,7 2,7 4 2 15 8 WSW 0,6
11.12.2017 11:00:00 4,8 4,1 0 0 8 4 N 2,2
11.12.2017 10:00:00 5,5 3,9 5 3 17 9 SE 0,8
11.12.2017 09:00:00 4,2 3,6 2 1 8 4 ENE 1,1
11.12.2017 08:00:00 4,7 3,8 6 3 11 6 E 1,1
11.12.2017 07:00:00 4,5 3,6 8 4 12 6 ENE -
11.12.2017 06:00:00 4,8 3,4 4 2 19 10 E 2,0
11.12.2017 05:00:00 6,2 3,2 3 1 26 14 ENE 1,9
11.12.2017 04:00:00 6,6 3,6 4 2 32 18 E 1,7
11.12.2017 03:00:00 7,4 2,9 9 5 28 15 E 0,9
11.12.2017 02:00:00 5,5 3,6 5 3 20 11 ENE 0,8
11.12.2017 01:00:00 5,8 3,9 5 3 27 14 ENE -
11.12.2017 00:00:00 5,5 3,6 5 3 22 12 E 0,7
10.12.2017 23:00:00 4,4 2,7 4 2 14 8 N 0,0
10.12.2017 22:00:00 5,1 1,9 10 5 18 10 ENE 0,0
10.12.2017 21:00:00 4,3 2,3 7 4 12 6 ENE 0,0
10.12.2017 20:00:00 5,6 1,3 1 0 18 10 ENE 0,0
10.12.2017 19:00:00 6,4 2,3 3 2 17 9 W -
10.12.2017 18:00:00 4,6 1,7 6 3 19 10 ENE 0,0
10.12.2017 17:00:00 6,7 1,9 8 4 20 11 ENE 0,0
10.12.2017 16:00:00 7,4 1,5 10 5 22 12 E 0,0
10.12.2017 15:00:00 7,5 0,9 7 4 22 12 ENE 0,0
10.12.2017 14:00:00 8,1 0,9 8 5 25 13 NE 0,0
10.12.2017 13:00:00 7,5 0,9 7 4 23 12 ENE -
10.12.2017 12:00:00 6,6 1,1 9 5 21 12 ENE 0,0
10.12.2017 11:00:00 6,2 2,5 11 6 18 10 E 0,0
10.12.2017 10:00:00 4,9 3,9 8 5 15 8 ENE 0,0
10.12.2017 09:00:00 2,7 2,1 3 2 10 6 ENE 0,0
10.12.2017 08:00:00 2,9 2,3 5 3 11 6 ENE 0,0
10.12.2017 07:00:00 2,7 2,1 1 0 9 5 NE -
10.12.2017 06:00:00 2,6 2,1 3 2 11 6 ENE 0,0
10.12.2017 05:00:00 2,5 1,9 4 2 11 6 ENE 0,1
10.12.2017 04:00:00 2,2 1,7 2 1 7 4 NNE 0,3
10.12.2017 03:00:00 2,5 1,9 3 2 11 6 ENE 0,1
10.12.2017 02:00:00 1,9 1,3 2 1 11 6 E 0,2
10.12.2017 01:00:00 2,1 1,5 5 3 11 6 ENE -
10.12.2017 00:00:00 1,1 0,6 3 1 8 4 E 2,0
09.12.2017 23:00:00 0,9 0,2 1 0 9 5 NE 1,6
09.12.2017 22:00:00 0,9 0,0 5 3 9 5 E 0,9
09.12.2017 21:00:00 0,4 -1,0 0 0 5 3 ESE 1,1
09.12.2017 20:00:00 0,5 -2,2 1 1 12 6 N 0,0
09.12.2017 19:00:00 0,7 -3,6 3 2 9 5 ENE -
09.12.2017 18:00:00 0,2 -3,3 5 3 11 6 ENE 0,0
09.12.2017 17:00:00 1,0 -3,3 0 0 3 2 SSE 0,0
09.12.2017 16:00:00 1,7 -2,7 0 0 0 0 N 0,0
09.12.2017 15:00:00 2,4 -4,8 1 1 9 5 SW 0,0
09.12.2017 14:00:00 3,0 -4,8 3 2 10 6 E 0,0
09.12.2017 13:00:00 4,1 -3,6 2 1 6 3 E -
09.12.2017 12:00:00 1,6 -2,5 4 2 13 7 SW 0,0
09.12.2017 11:00:00 0,2 -2,0 3 2 11 6 SW 0,0
09.12.2017 10:00:00 -0,3 -2,2 3 2 11 6 SSW 0,0
09.12.2017 09:00:00 -0,7 -2,0 4 2 8 5 SSE 0,0
09.12.2017 08:00:00 -0,6 -1,7 1 1 11 6 SE 0,0
09.12.2017 07:00:00 -0,8 -1,4 2 1 11 6 SW -
09.12.2017 06:00:00 -0,5 -1,2 4 2 14 7 SW 0,0
09.12.2017 05:00:00 -0,2 -1,0 4 2 15 8 SSW 0,0
09.12.2017 04:00:00 -0,1 -0,7 5 3 12 6 SSW 0,0
09.12.2017 03:00:00 0,0 -0,7 4 2 12 6 SSW 0,0
09.12.2017 02:00:00 0,0 -0,7 5 3 16 9 SSW 0,0
09.12.2017 01:00:00 0,5 -0,7 5 3 15 8 SSW -
09.12.2017 00:00:00 0,6 -0,5 5 3 11 6 SSW 0,0
08.12.2017 23:00:00 0,7 -0,3 2 1 11 6 SSE 0,0
08.12.2017 22:00:00 1,0 0,2 1 1 10 5 SSE 0,0
08.12.2017 21:00:00 1,2 0,6 4 2 10 5 SW 0,0
08.12.2017 20:00:00 1,7 1,1 0 0 8 4 N 0,0
08.12.2017 19:00:00 1,8 1,3 0 0 12 7 N -
08.12.2017 18:00:00 2,1 1,5 3 2 10 5 S 0,0
08.12.2017 17:00:00 2,6 1,5 1 0 11 6 S 0,0
08.12.2017 16:00:00 3,1 1,7 3 1 10 5 E 0,1
08.12.2017 15:00:00 3,4 2,1 3 2 18 10 WSW 0,1
08.12.2017 14:00:00 3,7 2,7 4 2 15 8 WSW 0,3
08.12.2017 13:00:00 3,9 3,2 3 2 14 7 SW -
08.12.2017 12:00:00 4,1 3,2 0 0 4 2 N 0,1
08.12.2017 11:00:00 4,1 3,4 1 0 8 4 S 0,2
08.12.2017 10:00:00 3,1 2,5 3 1 10 5 ENE 0,6
08.12.2017 09:00:00 2,9 2,1 5 3 10 6 ENE 0,3
08.12.2017 08:00:00 2,0 1,3 1 1 8 4 NE 1,3
08.12.2017 07:00:00 2,8 0,6 2 1 15 8 E -
08.12.2017 06:00:00 2,3 -0,7 5 3 16 9 NE 0,0
08.12.2017 05:00:00 2,3 -2,0 7 4 14 8 ENE 0,0
08.12.2017 04:00:00 0,7 -2,5 3 1 14 8 ENE 0,0
08.12.2017 03:00:00 0,4 -2,7 4 2 10 6 E 0,0
08.12.2017 02:00:00 0,2 -3,6 4 2 10 5 ENE 0,0
08.12.2017 01:00:00 0,6 -3,0 3 2 14 8 ENE -
08.12.2017 00:00:00 0,5 -3,9 6 4 12 7 ENE 0,0
07.12.2017 23:00:00 -0,8 -4,5 1 1 8 4 ESE 0,0
07.12.2017 22:00:00 0,8 -4,8 0 0 18 10 E 0,0
07.12.2017 21:00:00 2,3 -4,8 10 5 17 9 ENE 0,0
07.12.2017 20:00:00 1,2 -3,9 5 3 12 7 ENE 0,0
07.12.2017 19:00:00 0,1 -3,0 3 1 8 5 NE -
07.12.2017 18:00:00 1,0 -2,5 1 0 8 5 ENE 0,0
07.12.2017 17:00:00 2,6 -1,7 3 2 7 4 NE 0,0
07.12.2017 16:00:00 4,9 -1,7 1 0 7 4 ENE 0,0
07.12.2017 15:00:00 6,3 -2,5 1 0 5 3 SSW 0,0
07.12.2017 14:00:00 5,7 -0,7 5 3 7 4 NE 0,0
07.12.2017 13:00:00 5,3 -1,4 6 3 8 4 ENE -
07.12.2017 12:00:00 3,9 -1,0 3 2 5 3 NE 0,0
07.12.2017 11:00:00 2,0 -2,7 1 1 9 5 NE 0,0
07.12.2017 10:00:00 -0,1 -3,9 1 1 8 4 ENE 0,0
07.12.2017 09:00:00 -1,1 -5,4 4 2 10 6 E 0,0
07.12.2017 08:00:00 -1,9 -6,4 4 2 16 9 ENE 0,0
07.12.2017 07:00:00 -2,2 -6,4 5 3 14 8 ENE -
07.12.2017 06:00:00 -3,0 -6,4 1 1 12 6 SE 0,0
07.12.2017 05:00:00 -2,2 -5,7 1 1 15 8 E 0,0
07.12.2017 04:00:00 -2,2 -5,4 1 1 14 8 NE 0,0
07.12.2017 03:00:00 -0,8 -5,7 3 2 16 9 E 0,0
07.12.2017 02:00:00 -1,6 -4,2 1 1 8 4 NE 0,0
07.12.2017 01:00:00 -1,9 -4,2 1 0 9 5 E -
07.12.2017 00:00:00 -2,0 -4,5 2 1 11 6 ENE 0,0
06.12.2017 23:00:00 -2,4 -5,1 1 1 13 7 NE 0,0
06.12.2017 22:00:00 -2,5 -5,1 1 1 9 5 ENE 0,0
06.12.2017 21:00:00 -2,2 -4,5 1 1 12 6 E 0,0
06.12.2017 20:00:00 -2,2 -4,8 1 1 10 5 ENE 0,0
06.12.2017 19:00:00 -1,1 -4,2 5 3 11 6 ENE -
06.12.2017 18:00:00 -1,3 -3,3 2 1 7 4 ENE 0,0
06.12.2017 17:00:00 -0,4 -2,7 3 2 8 4 E 0,0
06.12.2017 16:00:00 0,3 -2,2 1 1 5 3 ENE 0,0
06.12.2017 15:00:00 1,9 -1,2 4 2 7 4 ENE 0,0
06.12.2017 14:00:00 3,1 -1,4 6 3 9 5 ENE 0,0
06.12.2017 13:00:00 2,6 -1,4 7 4 9 5 NE -
06.12.2017 12:00:00 0,2 -2,2 5 3 8 4 NE 0,0

tt = Température de l'air
td = dewpoint
ff = Vitesse du vent
fx = gusts
dd = Direction du vent
rr = Quantités de précipitations

stations d'obs. à proximité